createdAt,value
2024-02-10T00:00:22.169Z,99024.03
2024-02-10T00:01:48.024Z,99017.47
2024-02-10T00:03:09.013Z,99027.31
2024-02-10T00:04:29.668Z,99030.97
2024-02-10T00:05:50.487Z,99034.50
2024-02-10T00:07:13.814Z,99025.03
2024-02-10T00:08:34.674Z,99025.03
2024-02-10T00:09:56.810Z,99024.16
2024-02-10T00:11:18.094Z,99027.69
2024-02-10T00:12:41.277Z,99035.22
2024-02-10T00:14:02.278Z,99048.38
2024-02-10T00:15:24.736Z,99034.81
2024-02-10T00:16:46.166Z,99048.38
2024-02-10T00:18:06.969Z,99038.97
2024-02-10T00:19:28.333Z,99042.59
2024-02-10T00:20:53.981Z,99040.53
2024-02-10T00:22:14.964Z,99044.28
2024-02-10T00:23:36.254Z,99041.31
2024-02-10T00:25:33.136Z,99050.78
2024-02-10T00:27:06.029Z,99049.97
2024-02-10T00:28:37.466Z,99038.59
2024-02-10T00:29:59.645Z,99051.59
2024-02-10T00:31:26.184Z,99047.19
2024-02-10T00:33:27.978Z,99045.94
2024-02-10T00:34:50.470Z,99046.94
2024-02-10T00:36:19.284Z,99049.59
2024-02-10T00:37:43.026Z,99042.53
2024-02-10T00:39:58.296Z,99048.31
2024-02-10T00:41:20.728Z,99046.31
2024-02-10T00:42:56.531Z,99050.16
2024-02-10T00:44:18.421Z,99051.09
2024-02-10T00:49:25.303Z,99040.69
2024-02-10T00:51:08.285Z,99052.53
2024-02-10T00:52:29.276Z,99054.75
2024-02-10T00:54:34.407Z,99049.09
2024-02-10T00:55:58.765Z,99047.41
2024-02-10T00:57:45.604Z,99045.81
2024-02-10T00:59:28.086Z,99048.97
2024-02-10T01:00:50.237Z,99045.81
2024-02-10T01:04:17.768Z,99045.47
2024-02-10T01:06:25.039Z,99051.50
2024-02-10T01:08:01.319Z,99052.31
2024-02-10T01:11:19.566Z,99043.22
2024-02-10T01:12:43.622Z,99043.09
2024-02-10T01:14:43.585Z,99041.81
2024-02-10T01:16:10.186Z,99042.22
2024-02-10T01:17:37.243Z,99042.28
2024-02-10T01:19:03.070Z,99041.88
2024-02-10T01:23:18.064Z,99034.31
2024-02-10T01:25:32.353Z,99037.97
2024-02-10T01:27:13.991Z,99031.94
2024-02-10T01:28:35.829Z,99042.09
2024-02-10T01:30:56.406Z,99031.78
2024-02-10T01:32:36.848Z,99032.00
2024-02-10T01:33:57.602Z,99035.06
2024-02-10T01:35:19.481Z,99031.44
2024-02-10T01:36:39.855Z,99033.66
2024-02-10T01:38:00.929Z,99031.78
2024-02-10T01:39:22.126Z,99039.47
2024-02-10T01:40:44.004Z,99042.75
2024-02-10T01:42:05.111Z,99030.53
2024-02-10T01:43:26.223Z,99044.41
2024-02-10T01:44:47.071Z,99037.91
2024-02-10T01:46:08.937Z,99032.59
2024-02-10T01:47:31.136Z,99033.38
2024-02-10T01:48:52.257Z,99026.38
2024-02-10T01:50:14.655Z,99031.44
2024-02-10T01:51:35.931Z,99030.63
2024-02-10T01:52:56.642Z,99022.94
2024-02-10T01:54:17.725Z,99031.03
2024-02-10T01:55:38.196Z,99033.06
2024-02-10T01:56:58.808Z,99032.69
2024-02-10T01:58:23.411Z,99032.25
2024-02-10T01:59:45.681Z,99025.59
2024-02-10T02:01:06.496Z,99018.84
2024-02-10T02:02:32.443Z,99024.56
2024-02-10T02:03:54.733Z,99027.00
2024-02-10T02:05:15.437Z,99027.56
2024-02-10T02:06:36.111Z,99028.59
2024-02-10T02:07:57.841Z,99022.06
2024-02-10T02:09:18.863Z,99022.06
2024-02-10T02:10:39.443Z,99020.31
2024-02-10T02:12:00.127Z,99020.09
2024-02-10T02:13:24.460Z,99017.25
2024-02-10T02:14:48.486Z,99007.91
2024-02-10T02:16:13.548Z,99013.78
2024-02-10T02:17:38.931Z,98993.91
2024-02-10T02:18:59.955Z,98997.50
2024-02-10T02:20:22.168Z,98995.31
2024-02-10T02:21:44.091Z,99001.22
2024-02-10T02:23:05.228Z,99000.44
2024-02-10T02:24:27.343Z,98994.94
2024-02-10T02:25:51.650Z,98997.78
2024-02-10T02:27:12.517Z,98992.91
2024-02-10T02:28:33.006Z,98998.00
2024-02-10T02:29:53.388Z,98996.41
2024-02-10T02:31:15.031Z,98987.66
2024-02-10T02:32:36.028Z,98987.22
2024-02-10T02:33:58.126Z,98981.78
2024-02-10T02:35:18.963Z,98984.19
2024-02-10T02:36:40.940Z,98983.63
2024-02-10T02:38:04.500Z,98980.75
2024-02-10T02:39:25.084Z,98977.31
2024-02-10T02:40:45.799Z,98979.31
2024-02-10T02:42:07.310Z,98985.16
2024-02-10T02:43:28.069Z,98987.28
2024-02-10T02:44:48.618Z,98977.94
2024-02-10T02:46:11.519Z,98980.97
2024-02-10T02:47:34.128Z,98985.44
2024-02-10T02:48:54.791Z,98990.56
2024-02-10T02:50:16.163Z,98989.31
2024-02-10T02:51:37.036Z,98987.69
2024-02-10T02:53:02.090Z,98985.44
2024-02-10T02:54:36.997Z,98991.94
2024-02-10T02:56:20.395Z,98999.06
2024-02-10T02:57:41.244Z,98997.66
2024-02-10T03:00:00.010Z,98990.72
2024-02-10T03:03:42.298Z,98987.88
2024-02-10T03:05:51.048Z,98995.56
2024-02-10T03:07:45.223Z,98997.28
2024-02-10T03:09:17.867Z,98992.84
2024-02-10T03:13:59.618Z,98983.34
2024-02-10T03:15:39.964Z,98981.31
2024-02-10T03:17:25.364Z,98968.16
2024-02-10T03:19:13.061Z,98974.91
2024-02-10T03:21:42.843Z,98973.59
2024-02-10T03:23:04.534Z,98969.97
2024-02-10T03:24:35.914Z,98976.47
2024-02-10T03:26:18.774Z,98977.03
2024-02-10T03:27:49.372Z,98979.16
2024-02-10T03:33:03.326Z,98978.72
2024-02-10T03:37:32.026Z,98985.00
2024-02-10T03:39:27.643Z,98977.78
2024-02-10T03:41:32.053Z,98977.72
2024-02-10T03:43:08.112Z,98973.47
2024-02-10T03:44:29.580Z,98979.72
2024-02-10T03:46:04.603Z,98980.00
2024-02-10T03:47:41.192Z,98981.44
2024-02-10T03:49:02.206Z,98989.69
2024-02-10T03:50:27.353Z,98987.06
2024-02-10T03:52:16.164Z,98993.53
2024-02-10T03:53:37.244Z,98994.72
2024-02-10T03:57:21.031Z,98994.81
2024-02-10T03:58:53.186Z,98991.13
2024-02-10T04:00:25.741Z,98994.34
2024-02-10T04:01:57.221Z,98987.47
2024-02-10T04:03:18.762Z,98983.22
2024-02-10T04:04:39.436Z,98979.16
2024-02-10T04:06:00.416Z,98977.38
2024-02-10T04:07:22.063Z,98976.50
2024-02-10T04:08:46.875Z,98977.72
2024-02-10T04:10:10.548Z,98965.69
2024-02-10T04:11:31.325Z,98963.03
2024-02-10T04:12:52.011Z,98972.78
2024-02-10T04:14:17.477Z,98970.22
2024-02-10T04:15:38.050Z,98967.97
2024-02-10T04:16:58.641Z,98965.91
2024-02-10T04:18:20.154Z,98967.97
2024-02-10T04:19:41.074Z,98963.31
2024-02-10T04:21:02.759Z,98957.00
2024-02-10T04:22:24.607Z,98968.44
2024-02-10T04:23:45.190Z,98966.53
2024-02-10T04:25:13.531Z,98960.47
2024-02-10T04:26:34.136Z,98960.84
2024-02-10T04:27:54.866Z,98957.00
2024-02-10T04:29:15.640Z,98956.97
2024-02-10T04:30:36.518Z,98960.63
2024-02-10T04:32:00.375Z,98946.28
2024-02-10T04:33:21.401Z,98951.75
2024-02-10T04:34:44.722Z,98949.31
2024-02-10T04:36:05.165Z,98944.47
2024-02-10T04:37:25.767Z,98941.19
2024-02-10T04:38:48.791Z,98945.22
2024-02-10T04:40:10.917Z,98943.25
2024-02-10T04:41:32.305Z,98939.31
2024-02-10T04:42:54.320Z,98937.84
2024-02-10T04:44:14.916Z,98937.84
2024-02-10T04:45:36.744Z,98931.56
2024-02-10T04:46:57.288Z,98939.47
2024-02-10T04:48:21.665Z,98947.94
2024-02-10T04:49:42.844Z,98947.72
2024-02-10T04:51:03.588Z,98944.22
2024-02-10T04:52:24.602Z,98945.88
2024-02-10T04:53:45.999Z,98940.84
2024-02-10T04:55:07.059Z,98948.34
2024-02-10T04:56:50.230Z,98940.25
2024-02-10T04:58:14.053Z,98942.88
2024-02-10T05:01:51.003Z,98929.53
2024-02-10T05:03:11.507Z,98935.38
2024-02-10T05:04:32.563Z,98928.91
2024-02-10T05:05:53.716Z,98928.09
2024-02-10T05:07:19.264Z,98918.75
2024-02-10T05:08:40.357Z,98905.94
2024-02-10T05:10:03.402Z,98909.06
2024-02-10T05:11:25.728Z,98901.38
2024-02-10T05:12:49.327Z,98905.44
2024-02-10T05:14:13.128Z,98908.28
2024-02-10T05:15:33.866Z,98906.47
2024-02-10T05:16:56.979Z,98915.84
2024-02-10T05:18:17.818Z,98903.69
2024-02-10T05:19:38.842Z,98907.47
2024-02-10T05:20:59.688Z,98906.31
2024-02-10T05:22:22.911Z,98909.53
2024-02-10T05:23:46.681Z,98909.13
2024-02-10T05:25:15.322Z,98908.09
2024-02-10T05:26:37.670Z,98910.72
2024-02-10T05:28:01.872Z,98905.50
2024-02-10T05:29:22.628Z,98903.41
2024-02-10T05:30:43.057Z,98898.75
2024-02-10T05:32:07.189Z,98889.50
2024-02-10T05:33:30.836Z,98892.09
2024-02-10T05:34:51.953Z,98893.28
2024-02-10T05:38:37.196Z,98898.72
2024-02-10T05:40:37.962Z,98905.44
2024-02-10T05:44:47.704Z,98908.03
2024-02-10T05:46:17.768Z,98912.72
2024-02-10T05:47:40.734Z,98914.56
2024-02-10T05:49:09.691Z,98913.53
2024-02-10T05:50:43.776Z,98913.94
2024-02-10T05:52:07.393Z,98907.00
2024-02-10T05:53:28.769Z,98907.63
2024-02-10T05:54:56.377Z,98911.91
2024-02-10T05:56:47.125Z,98916.75
2024-02-10T05:58:08.427Z,98904.25
2024-02-10T05:59:29.746Z,98911.09
2024-02-10T06:01:00.997Z,98920.19
2024-02-10T06:02:22.848Z,98907.22
2024-02-10T06:03:43.851Z,98916.34
2024-02-10T06:05:06.890Z,98918.41
2024-02-10T06:06:27.606Z,98906.19
2024-02-10T06:08:27.089Z,98906.66
2024-02-10T06:10:44.971Z,98909.44
2024-02-10T06:14:00.619Z,98909.91
2024-02-10T06:15:25.847Z,98903.56
2024-02-10T06:16:53.191Z,98905.00
2024-02-10T06:18:16.856Z,98899.38
2024-02-10T06:19:43.059Z,98909.53
2024-02-10T06:21:18.167Z,98905.00
2024-02-10T06:22:48.996Z,98898.91
2024-02-10T06:24:33.476Z,98901.72
2024-02-10T06:26:24.319Z,98904.16
2024-02-10T06:28:11.301Z,98896.44
2024-02-10T06:29:36.808Z,98899.31
2024-02-10T06:31:00.179Z,98892.84
2024-02-10T06:32:25.862Z,98889.81
2024-02-10T06:34:44.704Z,98889.16
2024-02-10T06:36:07.464Z,98885.53
2024-02-10T06:38:54.002Z,98894.63
2024-02-10T06:39:31.503Z,98895.66
2024-02-10T06:41:32.458Z,98888.75
2024-02-10T06:43:04.473Z,98885.97
2024-02-10T06:44:32.187Z,98898.72
2024-02-10T06:49:22.699Z,98902.66
2024-02-10T06:50:46.795Z,98899.38
2024-02-10T06:52:13.135Z,98909.88
2024-02-10T06:53:55.273Z,98908.66
2024-02-10T06:58:17.670Z,98904.91
2024-02-10T06:59:50.909Z,98894.41
2024-02-10T07:01:30.189Z,98894.78
2024-02-10T07:03:08.075Z,98906.38
2024-02-10T07:09:31.375Z,98914.81
2024-02-10T07:10:59.624Z,98918.69
2024-02-10T07:12:22.440Z,98917.06
2024-02-10T07:16:56.469Z,98916.22
2024-02-10T07:18:43.530Z,98923.50
2024-02-10T07:20:07.770Z,98938.13
2024-02-10T07:21:30.062Z,98930.44
2024-02-10T07:25:25.304Z,98939.72
2024-02-10T07:28:57.787Z,98947.47
2024-02-10T07:33:08.202Z,98946.28
2024-02-10T07:35:03.315Z,98946.09
2024-02-10T07:36:29.675Z,98938.94
2024-02-10T07:38:40.372Z,98946.69
2024-02-10T07:40:25.564Z,98937.94
2024-02-10T07:42:50.700Z,98955.31
2024-02-10T07:49:36.922Z,98939.44
2024-02-10T07:51:27.654Z,98942.06
2024-02-10T07:53:32.448Z,98940.22
2024-02-10T07:55:20.894Z,98946.53
2024-02-10T07:57:42.627Z,98933.91
2024-02-10T08:01:48.695Z,98938.81
2024-02-10T08:03:11.132Z,98931.16
2024-02-10T08:04:33.824Z,98936.28
2024-02-10T08:07:37.787Z,98938.38
2024-02-10T08:09:33.910Z,98941.44
2024-02-10T08:11:01.277Z,98948.31
2024-02-10T08:12:38.541Z,98943.66
2024-02-10T08:14:18.444Z,98942.69
2024-02-10T08:18:11.471Z,98943.97
2024-02-10T08:19:38.882Z,98938.06
2024-02-10T08:21:04.709Z,98950.47
2024-02-10T08:22:41.440Z,98948.38
2024-02-10T08:24:49.013Z,98945.28
2024-02-10T08:26:15.576Z,98950.94
2024-02-10T08:27:47.900Z,98958.28
2024-02-10T08:29:26.336Z,98952.03
2024-02-10T08:31:35.609Z,98955.25
2024-02-10T08:33:20.329Z,98955.41
2024-02-10T08:36:58.867Z,98951.34
2024-02-10T08:38:42.579Z,98960.28
2024-02-10T08:42:08.373Z,98958.50
2024-02-10T08:43:47.774Z,98955.47
2024-02-10T08:45:34.228Z,98964.16
2024-02-10T08:47:22.076Z,98954.59
2024-02-10T08:49:40.797Z,98963.56
2024-02-10T08:51:08.346Z,98958.78
2024-02-10T08:52:33.059Z,98968.19
2024-02-10T08:53:58.886Z,98959.22
2024-02-10T08:55:54.888Z,98969.81
2024-02-10T08:59:28.460Z,98963.63
2024-02-10T09:01:19.135Z,98962.16
2024-02-10T09:02:52.433Z,98970.38
2024-02-10T09:04:18.410Z,98964.94
2024-02-10T09:06:23.368Z,98963.72
2024-02-10T09:08:44.796Z,98962.22
2024-02-10T09:10:13.891Z,98964.06
2024-02-10T09:12:03.464Z,98957.59
2024-02-10T09:13:28.518Z,98961.41
2024-02-10T09:14:55.026Z,98959.47
2024-02-10T09:16:37.030Z,98969.53
2024-02-10T09:18:55.606Z,98977.22
2024-02-10T09:20:39.593Z,98974.72
2024-02-10T09:22:17.235Z,98970.31
2024-02-10T09:24:15.588Z,98968.56
2024-02-10T09:25:59.577Z,98967.97
2024-02-10T09:27:31.309Z,98965.28
2024-02-10T09:29:13.807Z,98965.44
2024-02-10T09:32:50.324Z,98969.56
2024-02-10T09:34:15.794Z,98970.50
2024-02-10T09:35:58.549Z,98959.38
2024-02-10T09:37:34.176Z,98962.31
2024-02-10T09:39:00.226Z,98968.72
2024-02-10T09:40:23.062Z,98964.28
2024-02-10T09:41:45.220Z,98969.72
2024-02-10T09:43:11.187Z,98966.63
2024-02-10T09:44:34.272Z,98970.44
2024-02-10T09:46:19.848Z,98977.59
2024-02-10T09:47:53.899Z,98979.63
2024-02-10T09:49:33.260Z,98976.88
2024-02-10T09:53:04.383Z,98974.22
2024-02-10T09:54:44.911Z,98974.09
2024-02-10T09:56:46.226Z,98977.47
2024-02-10T09:58:32.183Z,98983.34
2024-02-10T10:00:04.483Z,98975.25
2024-02-10T10:02:10.017Z,98982.50
2024-02-10T10:06:11.730Z,98980.91
2024-02-10T10:07:37.236Z,98975.81
2024-02-10T10:11:38.612Z,98969.84
2024-02-10T10:13:56.052Z,98965.47
2024-02-10T10:16:26.355Z,98969.53
2024-02-10T10:17:50.226Z,98964.34
2024-02-10T10:19:34.812Z,98971.13
2024-02-10T10:21:06.878Z,98962.63
2024-02-10T10:23:11.798Z,98957.31
2024-02-10T10:24:50.776Z,98974.00
2024-02-10T10:26:12.952Z,98958.22
2024-02-10T10:33:25.532Z,98950.16
2024-02-10T10:34:58.835Z,98945.31
2024-02-10T10:38:13.932Z,98941.47
2024-02-10T10:39:51.694Z,98944.72
2024-02-10T10:41:31.777Z,98943.56
2024-02-10T10:43:10.869Z,98931.81
2024-02-10T10:44:42.325Z,98945.16
2024-02-10T10:46:55.647Z,98948.84
2024-02-10T10:50:44.772Z,98939.41
2024-02-10T10:53:45.665Z,98933.63
2024-02-10T10:56:35.397Z,98941.44
2024-02-10T10:58:07.247Z,98941.81
2024-02-10T10:59:30.344Z,98940.44
2024-02-10T11:01:33.466Z,98937.97
2024-02-10T11:04:49.523Z,98932.13
2024-02-10T11:06:16.510Z,98934.41
2024-02-10T11:07:45.535Z,98935.91
2024-02-10T11:09:38.198Z,98934.88
2024-02-10T11:11:09.566Z,98922.97
2024-02-10T11:12:40.338Z,98924.16
2024-02-10T11:14:26.415Z,98926.47
2024-02-10T11:16:16.522Z,98923.22
2024-02-10T11:17:47.507Z,98913.28
2024-02-10T11:20:52.210Z,98917.44
2024-02-10T11:22:14.064Z,98919.50
2024-02-10T11:23:51.619Z,98922.16
2024-02-10T11:25:59.257Z,98923.59
2024-02-10T11:28:03.111Z,98925.72
2024-02-10T11:29:46.971Z,98921.88
2024-02-10T11:33:51.156Z,98914.09
2024-02-10T11:35:16.480Z,98912.50
2024-02-10T11:36:39.668Z,98915.00
2024-02-10T11:39:06.661Z,98917.09
2024-02-10T11:41:22.350Z,98917.91
2024-02-10T11:43:09.080Z,98915.94
2024-02-10T11:44:44.840Z,98911.09
2024-02-10T11:46:10.399Z,98913.84
2024-02-10T11:47:51.561Z,98907.59
2024-02-10T11:49:27.204Z,98906.78
2024-02-10T11:51:38.649Z,98911.63
2024-02-10T11:55:14.503Z,98910.13
2024-02-10T11:56:42.387Z,98905.28
2024-02-10T11:58:09.830Z,98894.09
2024-02-10T11:59:40.733Z,98898.13
2024-02-10T12:01:27.966Z,98900.56
2024-02-10T12:03:15.517Z,98906.34
2024-02-10T12:04:43.388Z,98911.31
2024-02-10T12:06:14.772Z,98894.03
2024-02-10T12:07:39.941Z,98906.84
2024-02-10T12:09:06.909Z,98897.47
2024-02-10T12:10:33.976Z,98902.53
2024-02-10T12:12:17.507Z,98901.19
2024-02-10T12:14:02.497Z,98897.00
2024-02-10T12:16:06.026Z,98899.41
2024-02-10T12:17:37.707Z,98900.56
2024-02-10T12:19:11.363Z,98903.13
2024-02-10T12:20:39.488Z,98907.03
2024-02-10T12:22:13.180Z,98895.38
2024-02-10T12:23:48.792Z,98898.44
2024-02-10T12:25:14.790Z,98901.69
2024-02-10T12:27:13.070Z,98897.81
2024-02-10T12:28:50.390Z,98901.03
2024-02-10T12:30:41.320Z,98896.69
2024-02-10T12:32:06.476Z,98893.78
2024-02-10T12:34:19.137Z,98891.69
2024-02-10T12:35:41.938Z,98891.78
2024-02-10T12:40:06.756Z,98894.44
2024-02-10T12:41:31.237Z,98903.63
2024-02-10T12:43:15.867Z,98901.34
2024-02-10T12:45:00.492Z,98897.19
2024-02-10T12:46:24.943Z,98897.09
2024-02-10T12:47:54.506Z,98901.81
2024-02-10T12:50:00.432Z,98891.69
2024-02-10T12:51:29.859Z,98900.94
2024-02-10T12:52:52.355Z,98901.34
2024-02-10T12:54:23.880Z,98892.66
2024-02-10T12:56:19.144Z,98897.66
2024-02-10T12:57:47.090Z,98904.56
2024-02-10T12:59:12.465Z,98893.94
2024-02-10T13:00:34.881Z,98894.28
2024-02-10T13:02:04.096Z,98895.25
2024-02-10T13:03:40.272Z,98889.94
2024-02-10T13:05:05.685Z,98902.50
2024-02-10T13:06:34.307Z,98892.03
2024-02-10T13:08:10.140Z,98889.69
2024-02-10T13:09:36.326Z,98893.13
2024-02-10T13:11:28.771Z,98891.53
2024-02-10T13:13:00.830Z,98892.66
2024-02-10T13:14:42.191Z,98896.03
2024-02-10T13:16:34.938Z,98901.69
2024-02-10T13:18:00.391Z,98892.34
2024-02-10T13:21:48.030Z,98901.59
2024-02-10T13:23:22.253Z,98895.06
2024-02-10T13:25:22.444Z,98907.22
2024-02-10T13:27:00.054Z,98897.91
2024-02-10T13:29:09.857Z,98898.16
2024-02-10T13:36:02.038Z,98889.75
2024-02-10T13:37:47.762Z,98884.66
2024-02-10T13:39:43.290Z,98885.31
2024-02-10T13:42:02.476Z,98889.25
2024-02-10T13:46:29.760Z,98883.63
2024-02-10T13:48:17.932Z,98879.03
2024-02-10T13:52:20.571Z,98886.13
2024-02-10T13:54:00.766Z,98882.31
2024-02-10T13:56:02.645Z,98880.38
2024-02-10T13:58:43.383Z,98878.75
2024-02-10T14:00:36.342Z,98882.28
2024-02-10T14:02:17.504Z,98875.63
2024-02-10T14:04:22.765Z,98877.91
2024-02-10T14:06:22.154Z,98878.16
2024-02-10T14:08:21.687Z,98880.03
2024-02-10T14:10:43.267Z,98874.69
2024-02-10T14:12:13.272Z,98874.69
2024-02-10T14:14:01.985Z,98880.56
2024-02-10T14:15:31.961Z,98877.63
2024-02-10T14:21:10.628Z,98882.94
2024-02-10T14:23:55.096Z,98881.50
2024-02-10T14:25:38.426Z,98870.44
2024-02-10T14:27:44.620Z,98872.97
2024-02-10T14:29:34.102Z,98875.06
2024-02-10T14:31:25.423Z,98868.78
2024-02-10T14:33:00.676Z,98871.19
2024-02-10T14:34:39.314Z,98876.81
2024-02-10T14:36:19.393Z,98880.03
2024-02-10T14:37:52.817Z,98868.13
2024-02-10T14:39:43.087Z,98872.97
2024-02-10T14:41:29.250Z,98877.31
2024-02-10T14:43:31.671Z,98881.56
2024-02-10T14:46:08.484Z,98877.31
2024-02-10T14:47:31.293Z,98877.47
2024-02-10T14:51:32.300Z,98873.63
2024-02-10T14:53:14.750Z,98881.44
2024-02-10T14:54:57.934Z,98872.31
2024-02-10T14:56:41.036Z,98875.72
2024-02-10T14:58:10.738Z,98875.06
2024-02-10T14:59:33.834Z,98868.63
2024-02-10T15:03:47.921Z,98871.94
2024-02-10T15:05:23.984Z,98879.19
2024-02-10T15:06:46.922Z,98875.50
2024-02-10T15:08:13.043Z,98879.75
2024-02-10T15:09:40.911Z,98874.88
2024-02-10T15:11:44.020Z,98876.44
2024-02-10T15:14:24.174Z,98876.50
2024-02-10T15:15:53.701Z,98870.56
2024-02-10T15:17:43.280Z,98874.78
2024-02-10T15:19:04.546Z,98871.78
2024-02-10T15:20:36.314Z,98874.19
2024-02-10T15:22:23.200Z,98878.97
2024-02-10T15:23:48.589Z,98881.28
2024-02-10T15:25:18.361Z,98878.09
2024-02-10T15:27:15.872Z,98883.69
2024-02-10T15:28:47.859Z,98880.34
2024-02-10T15:30:18.105Z,98883.00
2024-02-10T15:31:41.667Z,98879.13
2024-02-10T15:33:48.593Z,98880.91
2024-02-10T15:35:38.549Z,98877.53
2024-02-10T15:37:05.092Z,98873.53
2024-02-10T15:39:19.997Z,98884.44
2024-02-10T15:40:59.742Z,98881.00
2024-02-10T15:42:29.406Z,98882.06
2024-02-10T15:44:09.630Z,98881.72
2024-02-10T15:45:49.920Z,98884.13
2024-02-10T15:48:04.259Z,98890.97
2024-02-10T15:49:32.374Z,98884.03
2024-02-10T15:50:58.078Z,98877.72
2024-02-10T15:52:21.200Z,98886.53
2024-02-10T15:53:43.437Z,98882.59
2024-02-10T15:55:15.724Z,98881.22
2024-02-10T15:56:56.701Z,98880.31
2024-02-10T15:58:24.251Z,98883.22
2024-02-10T15:59:53.409Z,98886.13
2024-02-10T16:01:42.021Z,98888.06
2024-02-10T16:03:04.911Z,98879.53
2024-02-10T16:04:52.383Z,98882.69
2024-02-10T16:06:19.911Z,98886.84
2024-02-10T16:07:45.612Z,98888.91
2024-02-10T16:09:12.000Z,98888.28
2024-02-10T16:10:56.543Z,98889.25
2024-02-10T16:12:49.537Z,98896.16
2024-02-10T16:14:29.349Z,98891.66
2024-02-10T16:15:51.506Z,98884.28
2024-02-10T16:17:16.836Z,98893.19
2024-02-10T16:18:39.791Z,98887.75
2024-02-10T16:20:02.025Z,98895.59
2024-02-10T16:21:29.109Z,98891.09
2024-02-10T16:22:55.963Z,98886.59
2024-02-10T16:24:18.135Z,98888.19
2024-02-10T16:25:42.267Z,98893.19
2024-02-10T16:27:04.183Z,98891.34
2024-02-10T16:28:26.589Z,98889.50
2024-02-10T16:29:49.311Z,98900.13
2024-02-10T16:31:12.756Z,98887.00
2024-02-10T16:32:36.602Z,98895.19
2024-02-10T16:34:00.151Z,98891.47
2024-02-10T16:35:28.235Z,98887.22
2024-02-10T16:36:50.681Z,98896.72
2024-02-10T16:38:14.464Z,98890.38
2024-02-10T16:39:36.294Z,98893.78
2024-02-10T16:40:58.360Z,98885.84
2024-02-10T16:42:20.404Z,98893.44
2024-02-10T16:43:45.725Z,98894.00
2024-02-10T16:45:08.085Z,98893.34
2024-02-10T16:46:34.432Z,98895.75
2024-02-10T16:47:58.134Z,98890.81
2024-02-10T16:49:24.606Z,98898.91
2024-02-10T16:50:46.923Z,98895.53
2024-02-10T16:52:09.201Z,98897.72
2024-02-10T16:53:30.386Z,98901.44
2024-02-10T16:54:54.934Z,98894.72
2024-02-10T16:56:17.715Z,98895.53
2024-02-10T16:57:39.993Z,98900.84
2024-02-10T16:59:01.297Z,98910.75
2024-02-10T17:00:26.441Z,98902.00
2024-02-10T17:01:48.387Z,98910.78
2024-02-10T17:03:11.858Z,98905.94
2024-02-10T17:04:34.886Z,98902.59
2024-02-10T17:06:00.597Z,98906.38
2024-02-10T17:07:31.613Z,98893.13
2024-02-10T17:08:52.871Z,98908.69
2024-02-10T17:10:16.357Z,98899.63
2024-02-10T17:11:39.215Z,98897.16
2024-02-10T17:13:01.412Z,98894.97
2024-02-10T17:14:23.583Z,98895.22
2024-02-10T17:15:46.256Z,98897.16
2024-02-10T17:17:09.566Z,98895.88
2024-02-10T17:18:32.920Z,98899.47
2024-02-10T17:19:55.345Z,98898.44
2024-02-10T17:21:17.685Z,98893.47
2024-02-10T17:22:40.887Z,98892.97
2024-02-10T17:24:02.633Z,98897.97
2024-02-10T17:25:30.022Z,98892.97
2024-02-10T17:26:54.612Z,98903.50
2024-02-10T17:28:17.167Z,98893.47
2024-02-10T17:29:39.329Z,98893.94
2024-02-10T17:31:02.173Z,98891.28
2024-02-10T17:32:23.526Z,98891.03
2024-02-10T17:33:46.053Z,98889.44
2024-02-10T17:35:09.579Z,98890.81
2024-02-10T17:36:33.227Z,98890.22
2024-02-10T17:38:03.598Z,98884.47
2024-02-10T17:39:25.590Z,98884.38
2024-02-10T17:40:47.990Z,98884.63
2024-02-10T17:42:10.455Z,98878.63
2024-02-10T17:43:33.081Z,98878.97
2024-02-10T17:44:58.731Z,98878.97
2024-02-10T17:46:21.298Z,98887.88
2024-02-10T17:47:47.782Z,98885.44
2024-02-10T17:49:12.236Z,98885.78
2024-02-10T17:50:35.019Z,98885.34
2024-02-10T17:51:58.954Z,98884.22
2024-02-10T17:53:25.599Z,98885.34
2024-02-10T17:54:50.382Z,98884.06
2024-02-10T17:56:13.738Z,98888.81
2024-02-10T17:57:36.587Z,98882.38
2024-02-10T17:58:58.664Z,98884.91
2024-02-10T18:00:22.592Z,98880.66
2024-02-10T18:01:45.646Z,98882.47
2024-02-10T18:03:08.111Z,98883.22
2024-02-10T18:04:29.823Z,98882.38
2024-02-10T18:05:54.873Z,98874.63
2024-02-10T18:07:19.342Z,98881.66
2024-02-10T18:08:42.727Z,98878.31
2024-02-10T18:10:06.880Z,98875.22
2024-02-10T18:11:29.534Z,98877.47
2024-02-10T18:12:52.658Z,98876.22
2024-02-10T18:14:15.317Z,98878.97
2024-02-10T18:15:38.340Z,98868.38
2024-02-10T18:17:01.797Z,98869.16
2024-02-10T18:18:26.747Z,98868.59
2024-02-10T18:19:49.136Z,98867.41
2024-02-10T18:21:11.435Z,98863.31
2024-02-10T18:22:34.076Z,98866.75
2024-02-10T18:23:57.231Z,98860.88
2024-02-10T18:25:19.846Z,98861.66
2024-02-10T18:26:42.485Z,98857.75
2024-02-10T18:28:12.037Z,98855.91
2024-02-10T18:29:36.789Z,98856.69
2024-02-10T18:31:03.522Z,98855.25
2024-02-10T18:32:25.854Z,98862.56
2024-02-10T18:33:47.670Z,98870.53
2024-02-10T18:35:10.189Z,98872.53
2024-02-10T18:36:33.282Z,98873.66
2024-02-10T18:37:59.168Z,98875.06
2024-02-10T18:39:23.743Z,98878.31
2024-02-10T18:40:45.733Z,98875.97
2024-02-10T18:42:07.888Z,98881.06
2024-02-10T18:43:32.122Z,98885.53
2024-02-10T18:44:54.788Z,98878.97
2024-02-10T18:46:19.146Z,98880.56
2024-02-10T18:47:42.206Z,98883.13
2024-02-10T18:49:04.850Z,98885.88
2024-02-10T18:50:27.061Z,98878.81
2024-02-10T18:51:50.080Z,98873.56
2024-02-10T18:53:14.864Z,98876.78
2024-02-10T18:54:36.526Z,98869.53
2024-02-10T18:56:09.038Z,98865.38
2024-02-10T18:57:32.766Z,98865.66
2024-02-10T18:58:58.302Z,98866.47
2024-02-10T19:00:27.153Z,98865.41
2024-02-10T19:01:55.987Z,98862.31
2024-02-10T19:03:18.521Z,98860.09
2024-02-10T19:04:41.424Z,98859.16
2024-02-10T19:06:05.103Z,98859.16
2024-02-10T19:07:28.810Z,98864.00
2024-02-10T19:08:55.292Z,98864.66
2024-02-10T19:10:20.230Z,98864.06
2024-02-10T19:11:42.164Z,98859.66
2024-02-10T19:13:06.048Z,98875.69
2024-02-10T19:14:29.927Z,98871.97
2024-02-10T19:15:53.998Z,98866.69
2024-02-10T19:17:21.763Z,98870.03
2024-02-10T19:18:45.667Z,98869.56
2024-02-10T19:20:10.049Z,98877.44
2024-02-10T19:21:37.293Z,98876.84
2024-02-10T19:23:00.544Z,98875.34
2024-02-10T19:24:25.418Z,98878.66
2024-02-10T19:25:52.233Z,98879.16
2024-02-10T19:27:15.269Z,98877.78
2024-02-10T19:28:40.438Z,98878.25
2024-02-10T19:30:11.378Z,98879.88
2024-02-10T19:31:41.811Z,98880.31
2024-02-10T19:33:04.311Z,98880.81
2024-02-10T19:34:26.172Z,98876.06
2024-02-10T19:35:52.681Z,98874.81
2024-02-10T19:37:15.077Z,98879.31
2024-02-10T19:38:38.566Z,98882.56
2024-02-10T19:40:00.455Z,98873.81
2024-02-10T19:41:25.052Z,98876.69
2024-02-10T19:42:49.303Z,98874.50
2024-02-10T19:44:15.222Z,98883.28
2024-02-10T19:45:39.635Z,98882.91
2024-02-10T19:47:02.434Z,98875.78
2024-02-10T19:48:30.129Z,98876.63
2024-02-10T19:49:57.209Z,98880.88
2024-02-10T19:51:21.139Z,98883.75
2024-02-10T19:52:48.184Z,98887.72
2024-02-10T19:54:13.635Z,98889.53
2024-02-10T19:55:36.052Z,98891.63
2024-02-10T19:56:59.423Z,98886.75
2024-02-10T19:58:25.126Z,98896.81
2024-02-10T19:59:47.933Z,98893.50
2024-02-10T20:01:11.197Z,98891.63
2024-02-10T20:02:32.881Z,98890.84
2024-02-10T20:03:55.885Z,98899.59
2024-02-10T20:05:19.311Z,98895.53
2024-02-10T20:06:43.265Z,98892.69
2024-02-10T20:08:09.605Z,98892.91
2024-02-10T20:09:32.362Z,98893.94
2024-02-10T20:10:56.030Z,98892.34